Metropolis, IL

3:06 PM CDT on March 29, 2017 (GMT -0500)
Metropolis

Weather History for KM30 - February, 2014

Change the Weather History Date:

Tuesday, February 25, 2014

  Actual Average (KPAH) Record (KPAH)
Temperature  
Mean Temperature 34 °F -  
Max Temperature 41 °F 50 °F 75 °F (1981)
Min Temperature 27 °F 30 °F 4 °F (1967)
Degree Days  
Heating Degree Days 30    
Moisture  
Dew Point 16 °F    
Average Humidity 50    
Maximum Humidity 63    
Minimum Humidity 35    
Precipitation  
Precipitation 0.00 in - - ()
Sea Level Pressure  
Sea Level Pressure 30.20 in    
Wind  
Wind Speed 6 mph (North)    
Max Wind Speed 14 mph    
Max Gust Speed 18 mph    
Visibility 10 miles    
Events      
Averages and records for this station are not official NWS values.
T = Trace of Precipitation, MM = Missing Value Source: NWS Daily Summary

Daily Weather History Graph

Daily Weather History Graph

Search for Another Location

Airport or City:

Trip Planner

Search our weather history database for the weather conditions in past years. The results will help you decide how hot, cold, wet, or windy it might be!

Date:

Astronomy

Feb. 25, 2014 Rise Set
Actual Time 6:31 AM CST 5:45 PM CST
Civil Twilight 6:05 AM CST 6:11 PM CST
Nautical Twilight 5:34 AM CST 6:41 PM CST
Astronomical Twilight 5:04 AM CST 7:11 PM CST
Moon 3:22 AM CST (2/25) 1:54 PM CST (2/25)
Length of Visible Light 12h 06m
Length of Day
11h 13m
Waning Crescent, 18% of the Moon is Illuminated
Feb 25
Waning Crescent
Mar 1
New
Mar 8
First Quarter
Mar 16
Full
Mar 23
Last Quarter

Hourly Weather History & Observations

Time (CST) Temp. Windchill Dew Point Humidity Pressure Visibility Wind Dir Wind Speed Gust Speed Precip Events Conditions
12:15 AM 33.4 °F 30.4 °F 14.4 °F 46% 30.20 in 10.0 mi NE 3.5 mph - N/A   Overcast
12:35 AM 33.3 °F - 14.5 °F 46% 30.19 in 10.0 mi Calm Calm - N/A   Overcast
12:55 AM 33.3 °F 28.9 °F 15.1 °F 47% 30.19 in 10.0 mi ENE 4.6 mph - N/A   Overcast
1:15 AM 33.1 °F - 16.2 °F 50% 30.19 in 10.0 mi Calm Calm - N/A   Overcast
1:35 AM 32.9 °F - 16.3 °F 51% 30.18 in 10.0 mi Calm Calm - N/A   Overcast
1:55 AM 32.9 °F - 16.3 °F 51% 30.18 in 7.0 mi Calm Calm - N/A   Overcast
2:15 AM 32.9 °F - 16.9 °F 52% 30.16 in 7.0 mi Calm Calm - N/A   Overcast
2:35 AM 32.9 °F 29.8 °F 17.1 °F 52% 30.17 in 10.0 mi North 3.5 mph - N/A   Overcast
2:55 AM 32.9 °F - 17.4 °F 53% 30.17 in 10.0 mi Calm Calm - N/A   Overcast
3:15 AM 32.5 °F 27.1 °F 16.7 °F 52% 30.18 in 10.0 mi North 5.8 mph - N/A   Overcast
3:35 AM 32.4 °F 26.0 °F 17.2 °F 54% 30.19 in 10.0 mi North 6.9 mph - N/A   Overcast
3:55 AM 32.2 °F 27.7 °F 16.2 °F 52% 30.19 in 10.0 mi North 4.6 mph - N/A   Overcast
4:15 AM 32.0 °F - 16.2 °F 52% 30.17 in 10.0 mi Calm Calm - N/A   Overcast
4:35 AM 32.0 °F - 16.2 °F 52% 30.17 in 7.0 mi Calm Calm - N/A   Overcast
4:55 AM 31.8 °F - 16.9 °F 54% 30.18 in 10.0 mi Calm Calm - N/A   Overcast
5:15 AM 31.8 °F 28.5 °F 16.7 °F 54% 30.19 in 10.0 mi North 3.5 mph - N/A   Mostly Cloudy
5:35 AM 31.1 °F 26.4 °F 16.9 °F 56% 30.20 in 10.0 mi North 4.6 mph - N/A   Scattered Clouds
5:55 AM 30.7 °F 27.3 °F 17.6 °F 58% 30.20 in 10.0 mi North 3.5 mph - N/A   Clear
6:15 AM 30.6 °F 24.7 °F 17.6 °F 59% 30.22 in 10.0 mi North 5.8 mph - N/A   Clear
6:35 AM 30.2 °F 24.3 °F 17.6 °F 60% 30.22 in 10.0 mi North 5.8 mph - N/A   Clear
6:55 AM 30.0 °F 24.1 °F 17.4 °F 59% 30.22 in 10.0 mi NNE 5.8 mph - N/A   Clear
7:15 AM 30.6 °F 23.8 °F 16.9 °F 57% 30.22 in 10.0 mi NNE 6.9 mph - N/A   Clear
7:35 AM 31.1 °F 23.7 °F 17.4 °F 57% 30.23 in 10.0 mi NNE 8.1 mph - N/A   Clear
7:55 AM 31.5 °F 24.9 °F 17.8 °F 57% 30.24 in 10.0 mi NNE 6.9 mph - N/A   Clear
8:15 AM 32.0 °F 24.2 °F 16.0 °F 52% 30.24 in 10.0 mi NE 9.2 mph - N/A   Clear
8:35 AM 32.7 °F 27.3 °F 16.2 °F 51% 30.24 in 10.0 mi NE 5.8 mph - N/A   Clear
8:55 AM 33.8 °F 27.0 °F 14.2 °F 45% 30.24 in 10.0 mi NNE 8.1 mph - N/A   Clear
9:15 AM 34.0 °F 28.0 °F 12.7 °F 42% 30.24 in 10.0 mi North 6.9 mph - N/A   Clear
9:35 AM 35.2 °F 31.2 °F 11.8 °F 38% 30.24 in 10.0 mi NE 4.6 mph - N/A   Clear
9:55 AM 35.8 °F 31.9 °F 11.1 °F 36% 30.24 in 10.0 mi NE 4.6 mph - N/A   Clear
10:15 AM 37.2 °F 32.6 °F 12.4 °F 36% 30.25 in 10.0 mi North 5.8 mph - N/A   Clear
10:35 AM 37.6 °F 30.5 °F 12.7 °F 36% 30.25 in 10.0 mi NNW 10.4 mph 16.1 mph N/A   Clear
10:55 AM 37.8 °F 32.5 °F 13.3 °F 37% 30.24 in 10.0 mi North 6.9 mph - N/A   Clear
11:15 AM 38.3 °F 30.9 °F 13.5 °F 36% 30.24 in 10.0 mi NNW 11.5 mph - N/A   Clear
11:35 AM 39.0 °F 32.8 °F 14.0 °F 36% 30.22 in 10.0 mi NNW 9.2 mph - N/A   Clear
11:55 AM 39.7 °F 34.9 °F 14.0 °F 35% 30.21 in 10.0 mi North 6.9 mph - N/A   Clear
12:15 PM 40.8 °F 35.0 °F 15.3 °F 35% 30.20 in 10.0 mi NNE 9.2 mph - N/A   Clear
12:35 PM 40.6 °F 34.3 °F 14.9 °F 35% 30.19 in 10.0 mi NNW 10.4 mph - N/A   Clear
12:55 PM 40.8 °F 34.1 °F 15.6 °F 36% 30.18 in 10.0 mi NNW 11.5 mph - N/A   Clear
1:15 PM 41.5 °F 37.1 °F 16.0 °F 36% 30.19 in 10.0 mi NNE 6.9 mph - N/A   Clear
1:35 PM 40.3 °F 37.1 °F 14.9 °F 36% 30.18 in 10.0 mi NNW 4.6 mph - N/A   Scattered Clouds
1:55 PM 39.9 °F 35.1 °F 16.0 °F 38% 30.17 in 10.0 mi NW 6.9 mph - N/A   Scattered Clouds
2:15 PM 39.6 °F 32.5 °F 16.5 °F 39% 30.17 in 10.0 mi North 11.5 mph - N/A   Scattered Clouds
2:35 PM 40.1 °F 35.3 °F 17.6 °F 40% 30.18 in 10.0 mi North 6.9 mph 16.1 mph N/A   Mostly Cloudy
2:55 PM 40.5 °F 32.8 °F 17.8 °F 40% 30.18 in 10.0 mi NNW 13.8 mph - N/A   Mostly Cloudy
3:15 PM 38.7 °F 30.9 °F 17.2 °F 42% 30.18 in 10.0 mi NNW 12.7 mph 16.1 mph N/A   Scattered Clouds
3:35 PM 37.9 °F 30.5 °F 18.1 °F 45% 30.18 in 10.0 mi North 11.5 mph 16.1 mph N/A   Clear
3:55 PM 37.6 °F 31.0 °F 18.1 °F 45% 30.17 in 10.0 mi North 9.2 mph - N/A   Clear
4:15 PM 36.7 °F 28.9 °F 18.0 °F 47% 30.17 in 10.0 mi North 11.5 mph 16.1 mph N/A   Scattered Clouds
4:35 PM 36.1 °F 29.9 °F 18.1 °F 48% 30.18 in 10.0 mi North 8.1 mph - N/A   Scattered Clouds
4:55 PM 35.6 °F 27.5 °F 17.4 °F 48% 30.19 in 10.0 mi NNW 11.5 mph - N/A   Scattered Clouds
5:15 PM 35.1 °F 27.9 °F 17.6 °F 49% 30.19 in 10.0 mi NNW 9.2 mph - N/A   Clear
5:35 PM 34.5 °F 26.7 °F 18.1 °F 51% 30.19 in 10.0 mi NNW 10.4 mph - N/A   Clear
5:55 PM 34.0 °F 26.0 °F 18.0 °F 52% 30.19 in 10.0 mi NNW 10.4 mph - N/A   Clear
6:15 PM 33.1 °F 23.4 °F 18.1 °F 54% 30.20 in 10.0 mi North 13.8 mph 17.3 mph N/A   Clear
6:35 PM 32.2 °F 23.2 °F 18.1 °F 56% 30.20 in 10.0 mi NNW 11.5 mph - N/A   Clear
6:55 PM 32.0 °F 23.0 °F 17.4 °F 55% 30.20 in 10.0 mi North 11.5 mph - N/A   Clear
7:15 PM 31.8 °F 24.6 °F 17.6 °F 56% 30.19 in 10.0 mi North 8.1 mph - N/A   Clear
7:35 PM 31.1 °F 23.7 °F 18.0 °F 58% 30.19 in 10.0 mi North 8.1 mph - N/A   Clear
7:55 PM 30.9 °F 23.5 °F 17.6 °F 58% 30.20 in 10.0 mi NNW 8.1 mph - N/A   Clear
8:15 PM 30.6 °F 21.2 °F 16.7 °F 56% 30.20 in 10.0 mi NNW 11.5 mph - N/A   Clear
8:35 PM 30.4 °F 21.5 °F 17.4 °F 59% 30.20 in 10.0 mi NNW 10.4 mph - N/A   Clear
8:55 PM 30.2 °F 20.2 °F 16.9 °F 58% 30.20 in 10.0 mi NNW 12.7 mph - N/A   Clear
9:15 PM 30.0 °F 21.7 °F 17.2 °F 59% 30.20 in 10.0 mi NNW 9.2 mph - N/A   Clear
9:35 PM 29.8 °F 20.9 °F 16.9 °F 59% 30.21 in 10.0 mi NNW 10.4 mph - N/A   Clear
9:55 PM 29.7 °F 20.1 °F 17.1 °F 59% 30.21 in 10.0 mi NNW 11.5 mph 16.1 mph N/A   Clear
10:15 PM 29.3 °F 22.3 °F 17.2 °F 61% 30.22 in 10.0 mi NNW 6.9 mph - N/A   Scattered Clouds
10:35 PM 28.9 °F 21.1 °F 17.6 °F 63% 30.22 in 10.0 mi NNW 8.1 mph - N/A   Mostly Cloudy
10:55 PM 28.9 °F 20.4 °F 17.6 °F 63% 30.23 in 10.0 mi NNW 9.2 mph - N/A   Mostly Cloudy
11:15 PM 28.4 °F 18.5 °F 16.7 °F 62% 30.22 in 10.0 mi NNW 11.5 mph 17.3 mph N/A   Scattered Clouds
11:35 PM 28.0 °F 18.1 °F 16.5 °F 62% 30.22 in 10.0 mi NNW 11.5 mph 18.4 mph N/A   Scattered Clouds
11:50 PM 27.7 °F 18.2 °F 15.8 °F 61% 30.22 in 10.0 mi NNW 10.4 mph 17.3 mph N/A   Scattered Clouds